sensor_id;sensor_type;location;lat;lon;timestamp;P1;durP1;ratioP1;P2;durP2;ratioP2
70806;SDS011;58882;52.170;5.386;2022-08-02T00:01:27;3.88;;;1.73;;
70806;SDS011;58882;52.170;5.386;2022-08-02T00:04:07;4.85;;;1.70;;
70806;SDS011;58882;52.170;5.386;2022-08-02T00:06:55;5.00;;;1.70;;
70806;SDS011;58882;52.170;5.386;2022-08-02T00:09:35;5.65;;;1.83;;
70806;SDS011;58882;52.170;5.386;2022-08-02T00:12:22;5.63;;;1.77;;
70806;SDS011;58882;52.170;5.386;2022-08-02T00:15:03;3.72;;;1.70;;
70806;SDS011;58882;52.170;5.386;2022-08-02T00:17:55;5.88;;;1.85;;
70806;SDS011;58882;52.170;5.386;2022-08-02T00:20:35;4.97;;;1.58;;
70806;SDS011;58882;52.170;5.386;2022-08-02T00:23:22;6.90;;;2.22;;
70806;SDS011;58882;52.170;5.386;2022-08-02T00:26:02;5.75;;;2.00;;
70806;SDS011;58882;52.170;5.386;2022-08-02T00:28:49;4.30;;;1.67;;
70806;SDS011;58882;52.170;5.386;2022-08-02T00:31:29;5.95;;;2.08;;
70806;SDS011;58882;52.170;5.386;2022-08-02T00:34:23;6.07;;;1.70;;
70806;SDS011;58882;52.170;5.386;2022-08-02T00:37:16;6.07;;;1.83;;
70806;SDS011;58882;52.170;5.386;2022-08-02T00:40:10;5.88;;;1.85;;
70806;SDS011;58882;52.170;5.386;2022-08-02T00:43:08;5.43;;;2.17;;
70806;SDS011;58882;52.170;5.386;2022-08-02T00:46:03;6.55;;;2.10;;
70806;SDS011;58882;52.170;5.386;2022-08-02T00:48:43;4.57;;;1.80;;
70806;SDS011;58882;52.170;5.386;2022-08-02T00:51:38;5.35;;;2.00;;
70806;SDS011;58882;52.170;5.386;2022-08-02T00:54:19;5.07;;;1.90;;
70806;SDS011;58882;52.170;5.386;2022-08-02T00:57:13;5.65;;;1.80;;
70806;SDS011;58882;52.170;5.386;2022-08-02T00:59:53;5.65;;;2.03;;
70806;SDS011;58882;52.170;5.386;2022-08-02T01:02:40;5.70;;;2.20;;
70806;SDS011;58882;52.170;5.386;2022-08-02T01:05:20;5.22;;;2.10;;
70806;SDS011;58882;52.170;5.386;2022-08-02T01:08:07;5.75;;;1.98;;
70806;SDS011;58882;52.170;5.386;2022-08-02T01:10:47;5.68;;;2.20;;
70806;SDS011;58882;52.170;5.386;2022-08-02T01:13:41;5.28;;;2.17;;
70806;SDS011;58882;52.170;5.386;2022-08-02T01:16:22;7.75;;;2.20;;
70806;SDS011;58882;52.170;5.386;2022-08-02T01:19:27;5.30;;;2.00;;
70806;SDS011;58882;52.170;5.386;2022-08-02T01:23:01;6.53;;;2.30;;
70806;SDS011;58882;52.170;5.386;2022-08-02T01:29:09;5.22;;;2.08;;
70806;SDS011;58882;52.170;5.386;2022-08-02T01:32:14;5.25;;;2.05;;
70806;SDS011;58882;52.170;5.386;2022-08-02T01:37:52;4.50;;;1.95;;
70806;SDS011;58882;52.170;5.386;2022-08-02T01:40:36;5.78;;;2.15;;
70806;SDS011;58882;52.170;5.386;2022-08-02T01:43:33;7.57;;;2.28;;
70806;SDS011;58882;52.170;5.386;2022-08-02T01:46:16;6.68;;;2.13;;
70806;SDS011;58882;52.170;5.386;2022-08-02T01:49:06;3.72;;;1.75;;
70806;SDS011;58882;52.170;5.386;2022-08-02T01:51:44;5.65;;;2.22;;
70806;SDS011;58882;52.170;5.386;2022-08-02T01:55:00;4.57;;;2.10;;
70806;SDS011;58882;52.170;5.386;2022-08-02T02:00:46;4.75;;;1.90;;
70806;SDS011;58882;52.170;5.386;2022-08-02T02:03:28;5.25;;;2.00;;
70806;SDS011;58882;52.170;5.386;2022-08-02T02:06:24;5.45;;;2.13;;
70806;SDS011;58882;52.170;5.386;2022-08-02T02:08:58;5.00;;;2.00;;
70806;SDS011;58882;52.170;5.386;2022-08-02T02:11:53;5.50;;;2.13;;
70806;SDS011;58882;52.170;5.386;2022-08-02T02:17:32;3.55;;;1.80;;
70806;SDS011;58882;52.170;5.386;2022-08-02T02:20:26;6.95;;;2.30;;
70806;SDS011;58882;52.170;5.386;2022-08-02T02:23:21;5.35;;;2.00;;
70806;SDS011;58882;52.170;5.386;2022-08-02T02:25:57;4.82;;;2.00;;
70806;SDS011;58882;52.170;5.386;2022-08-02T02:28:57;6.88;;;2.10;;
70806;SDS011;58882;52.170;5.386;2022-08-02T02:31:43;5.10;;;1.95;;
70806;SDS011;58882;52.170;5.386;2022-08-02T02:34:40;5.88;;;2.05;;
70806;SDS011;58882;52.170;5.386;2022-08-02T02:37:29;6.28;;;2.33;;
70806;SDS011;58882;52.170;5.386;2022-08-02T02:40:27;4.78;;;2.00;;
70806;SDS011;58882;52.170;5.386;2022-08-02T02:43:08;5.32;;;1.98;;
70806;SDS011;58882;52.170;5.386;2022-08-02T02:45:57;4.95;;;2.00;;
70806;SDS011;58882;52.170;5.386;2022-08-02T02:48:39;7.30;;;2.08;;
70806;SDS011;58882;52.170;5.386;2022-08-02T02:51:34;5.50;;;1.85;;
70806;SDS011;58882;52.170;5.386;2022-08-02T02:54:15;6.10;;;2.28;;
70806;SDS011;58882;52.170;5.386;2022-08-02T02:57:13;6.25;;;2.08;;
70806;SDS011;58882;52.170;5.386;2022-08-02T02:59:54;5.75;;;2.13;;
70806;SDS011;58882;52.170;5.386;2022-08-02T03:02:42;5.47;;;2.20;;
70806;SDS011;58882;52.170;5.386;2022-08-02T03:05:23;5.97;;;1.92;;
70806;SDS011;58882;52.170;5.386;2022-08-02T03:08:10;5.95;;;2.05;;
70806;SDS011;58882;52.170;5.386;2022-08-02T03:10:51;5.00;;;1.90;;
70806;SDS011;58882;52.170;5.386;2022-08-02T03:13:39;5.75;;;2.08;;
70806;SDS011;58882;52.170;5.386;2022-08-02T03:16:19;5.25;;;1.80;;
70806;SDS011;58882;52.170;5.386;2022-08-02T03:19:13;4.47;;;2.03;;
70806;SDS011;58882;52.170;5.386;2022-08-02T03:21:54;4.03;;;2.00;;
70806;SDS011;58882;52.170;5.386;2022-08-02T03:24:41;3.65;;;1.88;;
70806;SDS011;58882;52.170;5.386;2022-08-02T03:27:21;4.28;;;1.98;;
70806;SDS011;58882;52.170;5.386;2022-08-02T03:30:15;5.05;;;1.83;;
70806;SDS011;58882;52.170;5.386;2022-08-02T03:32:59;5.00;;;1.80;;
70806;SDS011;58882;52.170;5.386;2022-08-02T03:35:47;4.07;;;1.73;;
70806;SDS011;58882;52.170;5.386;2022-08-02T03:38:36;3.90;;;1.75;;
70806;SDS011;58882;52.170;5.386;2022-08-02T03:41:17;5.15;;;2.00;;
70806;SDS011;58882;52.170;5.386;2022-08-02T03:44:05;4.72;;;2.10;;
70806;SDS011;58882;52.170;5.386;2022-08-02T03:46:47;4.88;;;1.90;;
70806;SDS011;58882;52.170;5.386;2022-08-02T03:49:34;7.65;;;1.88;;
70806;SDS011;58882;52.170;5.386;2022-08-02T03:52:15;4.60;;;1.95;;
70806;SDS011;58882;52.170;5.386;2022-08-02T03:55:02;5.68;;;1.95;;
70806;SDS011;58882;52.170;5.386;2022-08-02T03:57:37;5.03;;;1.90;;
70806;SDS011;58882;52.170;5.386;2022-08-02T04:00:32;4.25;;;1.70;;
70806;SDS011;58882;52.170;5.386;2022-08-02T04:03:12;4.53;;;1.70;;
70806;SDS011;58882;52.170;5.386;2022-08-02T04:06:00;6.47;;;2.10;;
70806;SDS011;58882;52.170;5.386;2022-08-02T04:08:40;4.82;;;1.88;;
70806;SDS011;58882;52.170;5.386;2022-08-02T04:11:27;3.60;;;1.80;;
70806;SDS011;58882;52.170;5.386;2022-08-02T04:14:10;8.93;;;2.03;;
70806;SDS011;58882;52.170;5.386;2022-08-02T04:17:05;5.35;;;1.90;;
70806;SDS011;58882;52.170;5.386;2022-08-02T04:19:48;7.47;;;2.00;;
70806;SDS011;58882;52.170;5.386;2022-08-02T04:25:35;7.57;;;1.90;;
70806;SDS011;58882;52.170;5.386;2022-08-02T04:28:24;4.75;;;1.70;;
70806;SDS011;58882;52.170;5.386;2022-08-02T04:31:05;5.72;;;1.77;;
70806;SDS011;58882;52.170;5.386;2022-08-02T04:33:53;5.50;;;1.73;;
70806;SDS011;58882;52.170;5.386;2022-08-02T04:36:34;4.32;;;2.00;;
70806;SDS011;58882;52.170;5.386;2022-08-02T04:39:28;5.97;;;1.75;;
70806;SDS011;58882;52.170;5.386;2022-08-02T04:42:08;4.50;;;1.73;;
70806;SDS011;58882;52.170;5.386;2022-08-02T04:44:55;3.88;;;1.73;;
70806;SDS011;58882;52.170;5.386;2022-08-02T04:47:35;5.55;;;2.10;;
70806;SDS011;58882;52.170;5.386;2022-08-02T04:50:42;5.65;;;2.17;;
70806;SDS011;58882;52.170;5.386;2022-08-02T04:53:22;4.70;;;1.67;;
70806;SDS011;58882;52.170;5.386;2022-08-02T04:56:10;6.40;;;1.80;;
70806;SDS011;58882;52.170;5.386;2022-08-02T04:58:50;3.90;;;1.80;;
70806;SDS011;58882;52.170;5.386;2022-08-02T05:01:37;5.03;;;1.85;;
70806;SDS011;58882;52.170;5.386;2022-08-02T05:04:17;4.57;;;1.83;;
70806;SDS011;58882;52.170;5.386;2022-08-02T05:07:11;6.38;;;1.90;;
70806;SDS011;58882;52.170;5.386;2022-08-02T05:09:51;4.13;;;1.80;;
70806;SDS011;58882;52.170;5.386;2022-08-02T05:12:38;4.90;;;1.83;;
70806;SDS011;58882;52.170;5.386;2022-08-02T05:15:19;6.07;;;1.80;;
70806;SDS011;58882;52.170;5.386;2022-08-02T05:18:11;4.72;;;1.70;;
70806;SDS011;58882;52.170;5.386;2022-08-02T05:20:51;5.72;;;1.70;;
70806;SDS011;58882;52.170;5.386;2022-08-02T05:23:38;3.78;;;1.92;;
70806;SDS011;58882;52.170;5.386;2022-08-02T05:26:18;4.35;;;1.70;;
70806;SDS011;58882;52.170;5.386;2022-08-02T05:29:05;5.63;;;1.85;;
70806;SDS011;58882;52.170;5.386;2022-08-02T05:31:45;4.70;;;1.70;;
70806;SDS011;58882;52.170;5.386;2022-08-02T05:34:32;4.20;;;1.83;;
70806;SDS011;58882;52.170;5.386;2022-08-02T05:37:12;4.18;;;1.67;;
70806;SDS011;58882;52.170;5.386;2022-08-02T05:39:59;3.70;;;1.70;;
70806;SDS011;58882;52.170;5.386;2022-08-02T05:42:44;5.60;;;1.92;;
70806;SDS011;58882;52.170;5.386;2022-08-02T05:45:33;3.63;;;1.52;;
70806;SDS011;58882;52.170;5.386;2022-08-02T05:48:14;4.45;;;1.67;;
70806;SDS011;58882;52.170;5.386;2022-08-02T05:51:11;4.53;;;1.80;;
70806;SDS011;58882;52.170;5.386;2022-08-02T05:54:00;3.08;;;1.40;;
70806;SDS011;58882;52.170;5.386;2022-08-02T05:57:05;3.67;;;1.63;;
70806;SDS011;58882;52.170;5.386;2022-08-02T06:00:00;5.07;;;1.50;;
70806;SDS011;58882;52.170;5.386;2022-08-02T06:03:02;6.32;;;1.80;;
70806;SDS011;58882;52.170;5.386;2022-08-02T06:06:04;7.18;;;1.90;;
70806;SDS011;58882;52.170;5.386;2022-08-02T06:09:00;5.25;;;1.75;;
70806;SDS011;58882;52.170;5.386;2022-08-02T06:11:44;3.95;;;1.67;;
70806;SDS011;58882;52.170;5.386;2022-08-02T06:14:41;4.25;;;1.63;;
70806;SDS011;58882;52.170;5.386;2022-08-02T06:17:26;4.32;;;1.70;;
70806;SDS011;58882;52.170;5.386;2022-08-02T06:20:24;4.22;;;1.85;;
70806;SDS011;58882;52.170;5.386;2022-08-02T06:23:06;7.50;;;1.80;;
70806;SDS011;58882;52.170;5.386;2022-08-02T06:26:02;5.60;;;1.88;;
70806;SDS011;58882;52.170;5.386;2022-08-02T06:28:44;5.25;;;1.77;;
70806;SDS011;58882;52.170;5.386;2022-08-02T06:31:39;5.72;;;1.88;;
70806;SDS011;58882;52.170;5.386;2022-08-02T06:34:20;3.28;;;1.55;;
70806;SDS011;58882;52.170;5.386;2022-08-02T06:37:18;5.65;;;1.73;;
70806;SDS011;58882;52.170;5.386;2022-08-02T06:40:31;4.90;;;1.88;;
70806;SDS011;58882;52.170;5.386;2022-08-02T06:46:10;4.72;;;1.60;;
70806;SDS011;58882;52.170;5.386;2022-08-02T06:49:17;3.13;;;1.52;;
70806;SDS011;58882;52.170;5.386;2022-08-02T06:52:17;3.22;;;1.50;;
70806;SDS011;58882;52.170;5.386;2022-08-02T06:55:08;6.97;;;1.73;;
70806;SDS011;58882;52.170;5.386;2022-08-02T06:57:48;4.65;;;1.70;;
70806;SDS011;58882;52.170;5.386;2022-08-02T07:00:35;4.75;;;1.60;;
70806;SDS011;58882;52.170;5.386;2022-08-02T07:03:16;8.90;;;2.22;;
70806;SDS011;58882;52.170;5.386;2022-08-02T07:06:05;4.63;;;1.73;;
70806;SDS011;58882;52.170;5.386;2022-08-02T07:08:47;6.93;;;2.10;;
70806;SDS011;58882;52.170;5.386;2022-08-02T07:11:54;6.30;;;2.30;;
70806;SDS011;58882;52.170;5.386;2022-08-02T07:14:34;6.65;;;2.30;;
70806;SDS011;58882;52.170;5.386;2022-08-02T07:17:28;5.72;;;2.25;;
70806;SDS011;58882;52.170;5.386;2022-08-02T07:20:02;5.13;;;2.30;;
70806;SDS011;58882;52.170;5.386;2022-08-02T07:22:58;7.40;;;2.58;;
70806;SDS011;58882;52.170;5.386;2022-08-02T07:25:38;5.22;;;2.20;;
70806;SDS011;58882;52.170;5.386;2022-08-02T07:28:42;5.00;;;2.22;;
70806;SDS011;58882;52.170;5.386;2022-08-02T07:31:22;5.30;;;1.92;;
70806;SDS011;58882;52.170;5.386;2022-08-02T07:34:09;5.43;;;2.00;;
70806;SDS011;58882;52.170;5.386;2022-08-02T07:36:42;6.05;;;1.98;;
70806;SDS011;58882;52.170;5.386;2022-08-02T07:39:38;8.23;;;2.53;;
70806;SDS011;58882;52.170;5.386;2022-08-02T07:42:20;6.63;;;2.47;;
70806;SDS011;58882;52.170;5.386;2022-08-02T07:45:08;4.63;;;2.08;;
70806;SDS011;58882;52.170;5.386;2022-08-02T07:47:50;6.97;;;2.30;;
70806;SDS011;58882;52.170;5.386;2022-08-02T07:50:37;4.95;;;2.10;;
70806;SDS011;58882;52.170;5.386;2022-08-02T07:53:10;6.90;;;2.13;;
70806;SDS011;58882;52.170;5.386;2022-08-02T07:56:24;4.80;;;2.10;;
70806;SDS011;58882;52.170;5.386;2022-08-02T07:58:57;5.93;;;2.33;;
70806;SDS011;58882;52.170;5.386;2022-08-02T08:01:51;5.43;;;1.98;;
70806;SDS011;58882;52.170;5.386;2022-08-02T08:04:31;6.97;;;2.25;;
70806;SDS011;58882;52.170;5.386;2022-08-02T08:07:18;5.05;;;2.08;;
70806;SDS011;58882;52.170;5.386;2022-08-02T08:09:58;5.22;;;2.08;;
70806;SDS011;58882;52.170;5.386;2022-08-02T08:12:45;6.15;;;2.35;;
70806;SDS011;58882;52.170;5.386;2022-08-02T08:15:25;6.35;;;2.17;;
70806;SDS011;58882;52.170;5.386;2022-08-02T08:18:12;5.93;;;2.25;;
70806;SDS011;58882;52.170;5.386;2022-08-02T08:20:52;5.47;;;2.35;;
70806;SDS011;58882;52.170;5.386;2022-08-02T08:23:42;5.35;;;2.28;;
70806;SDS011;58882;52.170;5.386;2022-08-02T08:26:23;5.97;;;2.25;;
70806;SDS011;58882;52.170;5.386;2022-08-02T08:29:10;5.10;;;2.38;;
70806;SDS011;58882;52.170;5.386;2022-08-02T08:31:50;6.25;;;2.70;;
70806;SDS011;58882;52.170;5.386;2022-08-02T08:34:37;5.65;;;2.47;;
70806;SDS011;58882;52.170;5.386;2022-08-02T08:37:17;7.13;;;2.70;;
70806;SDS011;58882;52.170;5.386;2022-08-02T08:40:11;7.25;;;2.50;;
70806;SDS011;58882;52.170;5.386;2022-08-02T08:42:51;5.05;;;2.17;;
70806;SDS011;58882;52.170;5.386;2022-08-02T08:45:39;5.45;;;2.33;;
70806;SDS011;58882;52.170;5.386;2022-08-02T08:48:15;5.43;;;2.30;;
70806;SDS011;58882;52.170;5.386;2022-08-02T08:51:11;5.45;;;2.17;;
70806;SDS011;58882;52.170;5.386;2022-08-02T08:53:58;4.72;;;2.42;;
70806;SDS011;58882;52.170;5.386;2022-08-02T08:56:49;5.88;;;1.92;;
70806;SDS011;58882;52.170;5.386;2022-08-02T08:59:30;5.03;;;2.00;;
70806;SDS011;58882;52.170;5.386;2022-08-02T09:02:17;4.65;;;2.10;;
70806;SDS011;58882;52.170;5.386;2022-08-02T09:05:00;5.45;;;2.20;;
70806;SDS011;58882;52.170;5.386;2022-08-02T09:07:49;4.10;;;2.00;;
70806;SDS011;58882;52.170;5.386;2022-08-02T09:13:28;4.90;;;2.00;;
70806;SDS011;58882;52.170;5.386;2022-08-02T09:16:51;3.78;;;1.80;;
70806;SDS011;58882;52.170;5.386;2022-08-02T09:19:30;4.60;;;1.80;;
70806;SDS011;58882;52.170;5.386;2022-08-02T09:22:17;3.58;;;1.70;;
70806;SDS011;58882;52.170;5.386;2022-08-02T09:25:04;4.75;;;2.15;;
70806;SDS011;58882;52.170;5.386;2022-08-02T09:27:53;3.55;;;1.90;;
70806;SDS011;58882;52.170;5.386;2022-08-02T09:30:41;5.30;;;2.10;;
70806;SDS011;58882;52.170;5.386;2022-08-02T09:33:41;3.38;;;1.67;;
70806;SDS011;58882;52.170;5.386;2022-08-02T09:36:36;4.47;;;1.70;;
70806;SDS011;58882;52.170;5.386;2022-08-02T09:39:17;4.38;;;1.70;;
70806;SDS011;58882;52.170;5.386;2022-08-02T09:42:11;3.58;;;1.90;;
70806;SDS011;58882;52.170;5.386;2022-08-02T09:44:56;4.13;;;1.85;;
70806;SDS011;58882;52.170;5.386;2022-08-02T09:47:51;4.28;;;1.98;;
70806;SDS011;58882;52.170;5.386;2022-08-02T09:50:31;3.42;;;1.80;;
70806;SDS011;58882;52.170;5.386;2022-08-02T09:53:18;3.45;;;1.90;;
70806;SDS011;58882;52.170;5.386;2022-08-02T09:55:59;3.83;;;1.98;;
70806;SDS011;58882;52.170;5.386;2022-08-02T09:59:13;4.13;;;1.88;;
70806;SDS011;58882;52.170;5.386;2022-08-02T10:01:55;4.20;;;2.20;;
70806;SDS011;58882;52.170;5.386;2022-08-02T10:04:43;3.58;;;1.90;;
70806;SDS011;58882;52.170;5.386;2022-08-02T10:07:25;5.07;;;2.30;;
70806;SDS011;58882;52.170;5.386;2022-08-02T10:10:12;4.55;;;2.05;;
70806;SDS011;58882;52.170;5.386;2022-08-02T10:12:52;3.53;;;1.90;;
70806;SDS011;58882;52.170;5.386;2022-08-02T10:15:39;4.32;;;2.35;;
70806;SDS011;58882;52.170;5.386;2022-08-02T10:18:22;4.90;;;2.38;;
70806;SDS011;58882;52.170;5.386;2022-08-02T10:21:26;3.63;;;2.00;;
70806;SDS011;58882;52.170;5.386;2022-08-02T10:24:17;3.63;;;1.98;;
70806;SDS011;58882;52.170;5.386;2022-08-02T10:27:14;4.82;;;2.35;;
70806;SDS011;58882;52.170;5.386;2022-08-02T10:29:57;5.07;;;2.40;;
70806;SDS011;58882;52.170;5.386;2022-08-02T10:32:45;5.43;;;2.30;;
70806;SDS011;58882;52.170;5.386;2022-08-02T10:35:27;4.57;;;2.40;;
70806;SDS011;58882;52.170;5.386;2022-08-02T10:38:18;4.22;;;2.33;;
70806;SDS011;58882;52.170;5.386;2022-08-02T10:40:59;3.90;;;2.15;;
70806;SDS011;58882;52.170;5.386;2022-08-02T10:43:53;5.45;;;2.50;;
70806;SDS011;58882;52.170;5.386;2022-08-02T10:47:17;5.13;;;2.35;;
70806;SDS011;58882;52.170;5.386;2022-08-02T10:50:04;3.90;;;2.17;;
70806;SDS011;58882;52.170;5.386;2022-08-02T10:52:44;4.50;;;2.30;;
70806;SDS011;58882;52.170;5.386;2022-08-02T10:55:44;3.30;;;2.10;;
70806;SDS011;58882;52.170;5.386;2022-08-02T10:58:25;5.13;;;2.47;;
70806;SDS011;58882;52.170;5.386;2022-08-02T11:01:28;4.93;;;2.30;;
70806;SDS011;58882;52.170;5.386;2022-08-02T11:04:11;4.93;;;2.22;;
70806;SDS011;58882;52.170;5.386;2022-08-02T11:07:09;3.85;;;1.95;;
70806;SDS011;58882;52.170;5.386;2022-08-02T11:13:10;3.55;;;2.22;;
70806;SDS011;58882;52.170;5.386;2022-08-02T11:16:11;5.53;;;2.05;;
70806;SDS011;58882;52.170;5.386;2022-08-02T11:21:38;3.05;;;1.83;;
70806;SDS011;58882;52.170;5.386;2022-08-02T11:24:23;4.35;;;2.20;;
70806;SDS011;58882;52.170;5.386;2022-08-02T11:27:16;3.28;;;1.88;;
70806;SDS011;58882;52.170;5.386;2022-08-02T11:29:58;3.15;;;1.98;;
70806;SDS011;58882;52.170;5.386;2022-08-02T11:32:45;3.53;;;2.00;;
70806;SDS011;58882;52.170;5.386;2022-08-02T11:35:36;3.38;;;2.13;;
70806;SDS011;58882;52.170;5.386;2022-08-02T11:38:31;3.65;;;1.90;;
70806;SDS011;58882;52.170;5.386;2022-08-02T11:41:25;3.30;;;1.80;;
70806;SDS011;58882;52.170;5.386;2022-08-02T11:44:19;2.95;;;1.83;;
70806;SDS011;58882;52.170;5.386;2022-08-02T11:47:06;2.97;;;1.80;;
70806;SDS011;58882;52.170;5.386;2022-08-02T11:49:46;3.47;;;1.70;;
70806;SDS011;58882;52.170;5.386;2022-08-02T11:52:34;2.60;;;1.63;;
70806;SDS011;58882;52.170;5.386;2022-08-02T11:55:14;3.28;;;1.80;;
70806;SDS011;58882;52.170;5.386;2022-08-02T11:58:02;3.63;;;1.73;;
70806;SDS011;58882;52.170;5.386;2022-08-02T12:00:37;2.65;;;1.65;;
70806;SDS011;58882;52.170;5.386;2022-08-02T12:03:33;3.92;;;1.73;;
70806;SDS011;58882;52.170;5.386;2022-08-02T12:06:08;2.25;;;1.52;;
70806;SDS011;58882;52.170;5.386;2022-08-02T12:09:11;3.92;;;1.80;;
70806;SDS011;58882;52.170;5.386;2022-08-02T12:11:51;2.38;;;1.50;;
70806;SDS011;58882;52.170;5.386;2022-08-02T12:14:40;1.88;;;1.33;;
70806;SDS011;58882;52.170;5.386;2022-08-02T12:17:24;4.38;;;1.50;;
70806;SDS011;58882;52.170;5.386;2022-08-02T12:20:37;2.97;;;1.63;;
70806;SDS011;58882;52.170;5.386;2022-08-02T12:23:10;3.65;;;1.60;;
70806;SDS011;58882;52.170;5.386;2022-08-02T12:26:05;2.33;;;1.63;;
70806;SDS011;58882;52.170;5.386;2022-08-02T12:28:53;2.83;;;1.63;;
70806;SDS011;58882;52.170;5.386;2022-08-02T12:31:44;3.65;;;1.65;;
70806;SDS011;58882;52.170;5.386;2022-08-02T12:34:30;2.78;;;1.40;;
70806;SDS011;58882;52.170;5.386;2022-08-02T12:37:25;2.40;;;1.50;;
70806;SDS011;58882;52.170;5.386;2022-08-02T12:40:20;2.55;;;1.50;;
70806;SDS011;58882;52.170;5.386;2022-08-02T12:43:24;2.85;;;1.40;;
70806;SDS011;58882;52.170;5.386;2022-08-02T12:46:04;3.78;;;1.52;;
70806;SDS011;58882;52.170;5.386;2022-08-02T12:49:12;2.30;;;1.40;;
70806;SDS011;58882;52.170;5.386;2022-08-02T12:51:56;2.72;;;1.40;;
70806;SDS011;58882;52.170;5.386;2022-08-02T12:54:45;1.90;;;1.40;;
70806;SDS011;58882;52.170;5.386;2022-08-02T12:57:27;3.13;;;1.45;;
70806;SDS011;58882;52.170;5.386;2022-08-02T13:00:23;2.83;;;1.50;;
70806;SDS011;58882;52.170;5.386;2022-08-02T13:03:06;2.10;;;1.48;;
70806;SDS011;58882;52.170;5.386;2022-08-02T13:06:13;3.63;;;1.42;;
70806;SDS011;58882;52.170;5.386;2022-08-02T13:09:14;2.75;;;1.33;;
70806;SDS011;58882;52.170;5.386;2022-08-02T13:12:09;1.98;;;1.50;;
70806;SDS011;58882;52.170;5.386;2022-08-02T13:14:50;2.10;;;1.50;;
70806;SDS011;58882;52.170;5.386;2022-08-02T13:17:52;3.85;;;1.60;;
70806;SDS011;58882;52.170;5.386;2022-08-02T13:20:31;4.30;;;1.80;;
70806;SDS011;58882;52.170;5.386;2022-08-02T13:23:24;2.53;;;1.60;;
70806;SDS011;58882;52.170;5.386;2022-08-02T13:26:24;3.88;;;1.60;;
70806;SDS011;58882;52.170;5.386;2022-08-02T13:29:11;2.20;;;1.55;;
70806;SDS011;58882;52.170;5.386;2022-08-02T13:31:51;2.15;;;1.45;;
70806;SDS011;58882;52.170;5.386;2022-08-02T13:34:38;3.95;;;1.70;;
70806;SDS011;58882;52.170;5.386;2022-08-02T13:37:18;3.65;;;1.60;;
70806;SDS011;58882;52.170;5.386;2022-08-02T13:40:05;2.30;;;1.40;;
70806;SDS011;58882;52.170;5.386;2022-08-02T13:43:01;3.22;;;1.60;;
70806;SDS011;58882;52.170;5.386;2022-08-02T13:45:41;3.70;;;1.48;;
70806;SDS011;58882;52.170;5.386;2022-08-02T13:48:28;2.58;;;1.50;;
70806;SDS011;58882;52.170;5.386;2022-08-02T13:51:08;3.55;;;1.48;;
70806;SDS011;58882;52.170;5.386;2022-08-02T13:54:02;2.75;;;1.50;;
70806;SDS011;58882;52.170;5.386;2022-08-02T13:56:35;2.90;;;1.50;;
70806;SDS011;58882;52.170;5.386;2022-08-02T13:59:29;3.28;;;1.55;;
70806;SDS011;58882;52.170;5.386;2022-08-02T14:02:29;3.05;;;1.40;;
70806;SDS011;58882;52.170;5.386;2022-08-02T14:05:19;2.67;;;1.50;;
70806;SDS011;58882;52.170;5.386;2022-08-02T14:08:18;2.65;;;1.42;;
70806;SDS011;58882;52.170;5.386;2022-08-02T14:11:06;3.00;;;1.50;;
70806;SDS011;58882;52.170;5.386;2022-08-02T14:13:46;3.33;;;1.40;;
70806;SDS011;58882;52.170;5.386;2022-08-02T14:16:33;3.20;;;1.50;;
70806;SDS011;58882;52.170;5.386;2022-08-02T14:19:22;2.17;;;1.30;;
70806;SDS011;58882;52.170;5.386;2022-08-02T14:22:02;3.42;;;1.52;;
70806;SDS011;58882;52.170;5.386;2022-08-02T14:24:51;3.65;;;1.60;;
70806;SDS011;58882;52.170;5.386;2022-08-02T14:27:24;4.78;;;1.48;;
70806;SDS011;58882;52.170;5.386;2022-08-02T14:30:18;2.75;;;1.60;;
70806;SDS011;58882;52.170;5.386;2022-08-02T14:32:58;2.33;;;1.40;;
70806;SDS011;58882;52.170;5.386;2022-08-02T14:35:45;3.67;;;1.52;;
70806;SDS011;58882;52.170;5.386;2022-08-02T14:38:35;2.75;;;1.55;;
70806;SDS011;58882;52.170;5.386;2022-08-02T14:41:29;3.83;;;1.55;;
70806;SDS011;58882;52.170;5.386;2022-08-02T14:44:05;3.55;;;1.55;;
70806;SDS011;58882;52.170;5.386;2022-08-02T14:46:59;2.75;;;1.42;;
70806;SDS011;58882;52.170;5.386;2022-08-02T14:49:39;2.55;;;1.50;;
70806;SDS011;58882;52.170;5.386;2022-08-02T14:52:29;3.08;;;1.45;;
70806;SDS011;58882;52.170;5.386;2022-08-02T14:55:09;3.75;;;1.45;;
70806;SDS011;58882;52.170;5.386;2022-08-02T14:57:56;2.97;;;1.30;;
70806;SDS011;58882;52.170;5.386;2022-08-02T15:00:36;3.65;;;1.50;;
70806;SDS011;58882;52.170;5.386;2022-08-02T15:03:23;3.50;;;1.42;;
70806;SDS011;58882;52.170;5.386;2022-08-02T15:06:16;4.03;;;1.70;;
70806;SDS011;58882;52.170;5.386;2022-08-02T15:09:04;3.65;;;1.50;;
70806;SDS011;58882;52.170;5.386;2022-08-02T15:11:44;4.40;;;1.65;;
70806;SDS011;58882;52.170;5.386;2022-08-02T15:14:44;4.78;;;1.60;;
70806;SDS011;58882;52.170;5.386;2022-08-02T15:17:25;4.28;;;1.50;;
70806;SDS011;58882;52.170;5.386;2022-08-02T15:20:12;4.50;;;1.67;;
70806;SDS011;58882;52.170;5.386;2022-08-02T15:22:57;3.50;;;1.48;;
70806;SDS011;58882;52.170;5.386;2022-08-02T15:25:45;5.60;;;1.40;;
70806;SDS011;58882;52.170;5.386;2022-08-02T15:28:25;2.22;;;1.38;;
70806;SDS011;58882;52.170;5.386;2022-08-02T15:31:19;4.15;;;1.60;;
70806;SDS011;58882;52.170;5.386;2022-08-02T15:34:05;3.85;;;1.60;;
70806;SDS011;58882;52.170;5.386;2022-08-02T15:36:57;2.83;;;1.40;;
70806;SDS011;58882;52.170;5.386;2022-08-02T15:39:44;5.07;;;1.50;;
70806;SDS011;58882;52.170;5.386;2022-08-02T15:42:38;3.63;;;1.50;;
70806;SDS011;58882;52.170;5.386;2022-08-02T15:45:18;5.05;;;1.77;;
70806;SDS011;58882;52.170;5.386;2022-08-02T15:48:06;4.22;;;1.50;;
70806;SDS011;58882;52.170;5.386;2022-08-02T15:50:47;5.03;;;1.60;;
70806;SDS011;58882;52.170;5.386;2022-08-02T15:53:36;3.10;;;1.50;;
70806;SDS011;58882;52.170;5.386;2022-08-02T15:56:20;3.03;;;1.38;;
70806;SDS011;58882;52.170;5.386;2022-08-02T15:59:07;3.65;;;1.40;;
70806;SDS011;58882;52.170;5.386;2022-08-02T16:01:47;3.88;;;1.75;;
70806;SDS011;58882;52.170;5.386;2022-08-02T16:04:34;3.55;;;1.70;;
70806;SDS011;58882;52.170;5.386;2022-08-02T16:07:15;3.15;;;1.30;;
70806;SDS011;58882;52.170;5.386;2022-08-02T16:10:02;3.65;;;1.40;;
70806;SDS011;58882;52.170;5.386;2022-08-02T16:12:43;2.15;;;1.27;;
70806;SDS011;58882;52.170;5.386;2022-08-02T16:15:29;2.72;;;1.55;;
70806;SDS011;58882;52.170;5.386;2022-08-02T16:18:09;3.90;;;1.48;;
70806;SDS011;58882;52.170;5.386;2022-08-02T16:20:56;3.63;;;1.40;;
70806;SDS011;58882;52.170;5.386;2022-08-02T16:23:36;2.97;;;1.25;;
70806;SDS011;58882;52.170;5.386;2022-08-02T16:26:40;3.38;;;1.40;;
70806;SDS011;58882;52.170;5.386;2022-08-02T16:29:13;3.08;;;1.25;;
70806;SDS011;58882;52.170;5.386;2022-08-02T16:32:12;3.67;;;1.40;;
70806;SDS011;58882;52.170;5.386;2022-08-02T16:34:54;3.65;;;1.45;;
70806;SDS011;58882;52.170;5.386;2022-08-02T16:37:47;2.90;;;1.50;;
70806;SDS011;58882;52.170;5.386;2022-08-02T16:40:34;2.97;;;1.50;;
70806;SDS011;58882;52.170;5.386;2022-08-02T16:43:14;3.35;;;1.42;;
70806;SDS011;58882;52.170;5.386;2022-08-02T16:46:01;3.63;;;1.50;;
70806;SDS011;58882;52.170;5.386;2022-08-02T16:48:34;3.95;;;1.35;;
70806;SDS011;58882;52.170;5.386;2022-08-02T16:51:29;4.53;;;1.40;;
70806;SDS011;58882;52.170;5.386;2022-08-02T16:54:02;6.25;;;1.65;;
70806;SDS011;58882;52.170;5.386;2022-08-02T16:56:57;6.15;;;1.63;;
70806;SDS011;58882;52.170;5.386;2022-08-02T16:59:38;3.25;;;1.55;;
70806;SDS011;58882;52.170;5.386;2022-08-02T17:02:45;4.35;;;1.48;;
70806;SDS011;58882;52.170;5.386;2022-08-02T17:05:19;4.57;;;1.58;;
70806;SDS011;58882;52.170;5.386;2022-08-02T17:08:16;3.17;;;1.40;;
70806;SDS011;58882;52.170;5.386;2022-08-02T17:11:03;11.13;;;1.67;;
70806;SDS011;58882;52.170;5.386;2022-08-02T17:13:55;3.63;;;1.30;;
70806;SDS011;58882;52.170;5.386;2022-08-02T17:16:35;6.32;;;1.42;;
70806;SDS011;58882;52.170;5.386;2022-08-02T17:19:22;8.20;;;1.42;;